Time,TemperatureF,DewpointF,PressureIn,WindDirection,WindDirectionDegrees,WindSpeedMPH,WindSpeedGustMPH,Humidity,HourlyPrecipIn,Conditions,Clouds,dailyrainin,SolarRadiationWatts/m^2,SoftwareType,DateUTC
2013-08-28 00:03:00,65.9,57.7,29.62,West,281,0.0,0.0,75,0.00,,,0.00,0,WeatherCatV1.02B3,2013-08-28 07:03:00,
2013-08-28 00:08:00,66.1,57.9,29.62,West,281,0.0,0.0,75,0.00,,,0.00,0,WeatherCatV1.02B3,2013-08-28 07:08:00,
2013-08-28 00:13:00,66.3,57.8,29.62,West,281,0.0,0.0,74,0.00,,,0.00,0,WeatherCatV1.02B3,2013-08-28 07:13:00,
2013-08-28 00:18:00,66.3,57.8,29.62,West,281,0.0,0.0,74,0.00,,,0.00,0,WeatherCatV1.02B3,2013-08-28 07:18:00,
2013-08-28 00:23:00,66.3,57.8,29.62,West,281,0.0,0.0,74,0.00,,,0.00,0,WeatherCatV1.02B3,2013-08-28 07:23:00,
2013-08-28 00:28:00,66.3,57.8,29.62,West,281,0.0,0.0,74,0.00,,,0.00,0,WeatherCatV1.02B3,2013-08-28 07:28:00,
2013-08-28 00:33:00,65.9,57.4,29.62,West,281,0.0,0.0,74,0.00,,,0.00,0,WeatherCatV1.02B3,2013-08-28 07:33:00,
2013-08-28 00:38:00,65.8,56.9,29.62,West,281,0.0,0.0,73,0.00,,,0.00,0,WeatherCatV1.02B3,2013-08-28 07:38:00,
2013-08-28 00:43:00,65.7,57.2,29.62,West,281,0.0,0.0,74,0.00,,,0.00,0,WeatherCatV1.02B3,2013-08-28 07:43:00,
2013-08-28 00:48:00,65.7,57.2,29.62,West,281,0.0,0.0,74,0.00,,,0.00,0,WeatherCatV1.02B3,2013-08-28 07:48:00,
2013-08-28 00:53:00,65.5,56.6,29.62,West,281,0.0,0.0,73,0.00,,,0.00,0,WeatherCatV1.02B3,2013-08-28 07:53:00,
2013-08-28 00:58:00,65.7,57.2,29.62,West,281,0.0,0.0,74,0.00,,,0.00,0,WeatherCatV1.02B3,2013-08-28 07:58:00,
2013-08-28 01:03:00,66.3,57.0,29.62,West,281,0.0,0.0,72,0.00,,,0.00,0,WeatherCatV1.02B3,2013-08-28 08:03:00,
2013-08-28 01:08:00,66.2,57.3,29.62,West,281,0.0,0.0,73,0.00,,,0.00,0,WeatherCatV1.02B3,2013-08-28 08:08:00,
2013-08-28 01:13:00,66.0,57.1,29.62,West,281,0.0,0.0,73,0.00,,,0.00,0,WeatherCatV1.02B3,2013-08-28 08:13:00,
2013-08-28 01:18:00,65.5,56.6,29.62,West,281,0.0,0.0,73,0.00,,,0.00,0,WeatherCatV1.02B3,2013-08-28 08:18:00,
2013-08-28 01:23:00,65.9,56.6,29.62,West,281,0.0,0.0,72,0.00,,,0.00,0,WeatherCatV1.02B3,2013-08-28 08:23:00,
2013-08-28 01:28:00,65.9,55.8,29.62,West,281,0.0,0.0,70,0.00,,,0.00,0,WeatherCatV1.02B3,2013-08-28 08:28:00,
2013-08-28 01:33:00,65.8,55.7,29.62,West,281,0.0,0.0,70,0.00,,,0.00,0,WeatherCatV1.02B3,2013-08-28 08:33:00,
2013-08-28 01:38:00,65.7,56.0,29.62,West,281,0.0,0.0,71,0.00,,,0.00,0,WeatherCatV1.02B3,2013-08-28 08:38:00,
2013-08-28 01:43:00,65.6,55.9,29.62,West,281,0.0,0.0,71,0.00,,,0.00,0,WeatherCatV1.02B3,2013-08-28 08:43:00,
2013-08-28 01:48:00,65.3,56.0,29.62,West,281,0.0,0.0,72,0.00,,,0.00,0,WeatherCatV1.02B3,2013-08-28 08:48:00,
2013-08-28 01:53:00,65.1,55.8,29.62,West,281,0.0,1.0,72,0.00,,,0.00,0,WeatherCatV1.02B3,2013-08-28 08:53:00,
2013-08-28 01:58:00,64.5,55.6,29.62,West,281,0.0,0.0,73,0.00,,,0.00,0,WeatherCatV1.02B3,2013-08-28 08:58:00,
2013-08-28 02:03:00,64.7,55.8,29.62,West,281,0.0,0.0,73,0.00,,,0.00,0,WeatherCatV1.02B3,2013-08-28 09:03:00,
2013-08-28 02:08:00,64.7,55.8,29.62,West,281,1.0,1.0,73,0.00,,,0.00,0,WeatherCatV1.02B3,2013-08-28 09:08:00,
2013-08-28 02:13:00,64.3,55.5,29.62,West,281,0.0,0.0,73,0.00,,,0.00,0,WeatherCatV1.02B3,2013-08-28 09:13:00,
2013-08-28 02:18:00,64.6,55.7,29.62,West,281,0.0,0.0,73,0.00,,,0.00,0,WeatherCatV1.02B3,2013-08-28 09:18:00,
2013-08-28 02:23:00,64.2,55.7,29.62,West,281,0.0,0.0,74,0.00,,,0.00,0,WeatherCatV1.02B3,2013-08-28 09:23:00,
2013-08-28 02:28:00,64.4,55.5,29.62,West,281,0.0,0.0,73,0.00,,,0.00,0,WeatherCatV1.02B3,2013-08-28 09:28:00,
2013-08-28 02:33:00,64.3,55.8,29.62,West,281,0.0,0.0,74,0.00,,,0.00,0,WeatherCatV1.02B3,2013-08-28 09:33:00,
2013-08-28 02:34:00,64.3,55.8,29.62,West,281,0.0,0.0,74,0.00,,,0.00,0,WeatherCatV1.02B3,2013-08-28 09:34:00,
2013-08-28 02:39:00,64.1,55.3,29.62,West,281,0.0,0.0,73,0.00,,,0.00,0,WeatherCatV1.02B3,2013-08-28 09:39:00,
2013-08-28 02:44:00,64.0,54.8,29.62,West,281,0.0,0.0,72,0.00,,,0.00,0,WeatherCatV1.02B3,2013-08-28 09:44:00,
2013-08-28 02:49:00,63.4,54.2,29.62,West,281,0.0,0.0,72,0.00,,,0.00,0,WeatherCatV1.02B3,2013-08-28 09:49:00,
2013-08-28 02:54:00,63.9,54.7,29.62,West,281,0.0,0.0,72,0.00,,,0.00,0,WeatherCatV1.02B3,2013-08-28 09:54:00,
2013-08-28 02:59:00,63.8,54.2,29.62,West,281,0.0,0.0,71,0.00,,,0.00,0,WeatherCatV1.02B3,2013-08-28 09:59:00,
2013-08-28 03:04:00,63.7,54.1,29.62,West,281,0.0,0.0,71,0.00,,,0.00,0,WeatherCatV1.02B3,2013-08-28 10:04:00,
2013-08-28 03:09:00,63.6,54.0,29.62,West,281,0.0,0.0,71,0.00,,,0.00,0,WeatherCatV1.02B3,2013-08-28 10:09:00,
2013-08-28 03:14:00,63.7,54.1,29.62,West,281,0.0,0.0,71,0.00,,,0.00,0,WeatherCatV1.02B3,2013-08-28 10:14:00,
2013-08-28 03:19:00,63.6,54.0,29.62,West,281,0.0,0.0,71,0.00,,,0.00,0,WeatherCatV1.02B3,2013-08-28 10:19:00,
2013-08-28 03:24:00,63.4,53.8,29.62,West,281,0.0,0.0,71,0.00,,,0.00,0,WeatherCatV1.02B3,2013-08-28 10:24:00,
2013-08-28 03:29:00,63.6,54.0,29.62,West,281,0.0,0.0,71,0.00,,,0.00,0,WeatherCatV1.02B3,2013-08-28 10:29:00,
2013-08-28 03:34:00,63.6,54.4,29.62,West,281,0.0,0.0,72,0.00,,,0.00,0,WeatherCatV1.02B3,2013-08-28 10:34:00,
2013-08-28 03:39:00,63.4,54.2,29.62,West,281,0.0,0.0,72,0.00,,,0.00,0,WeatherCatV1.02B3,2013-08-28 10:39:00,
2013-08-28 03:44:00,63.2,54.4,29.62,West,281,0.0,0.0,73,0.00,,,0.00,0,WeatherCatV1.02B3,2013-08-28 10:44:00,
2013-08-28 03:49:00,63.1,54.3,29.62,West,281,0.0,1.0,73,0.00,,,0.00,0,WeatherCatV1.02B3,2013-08-28 10:49:00,
2013-08-28 03:54:00,62.8,54.0,29.62,West,281,0.0,0.0,73,0.00,,,0.00,0,WeatherCatV1.02B3,2013-08-28 10:54:00,
2013-08-28 03:59:00,62.4,53.6,29.62,West,281,0.0,0.0,73,0.00,,,0.00,0,WeatherCatV1.02B3,2013-08-28 10:59:00,
2013-08-28 04:04:00,62.5,53.7,29.62,West,281,0.0,0.0,73,0.00,,,0.00,0,WeatherCatV1.02B3,2013-08-28 11:04:00,
2013-08-28 04:09:00,62.5,53.7,29.62,West,281,0.0,0.0,73,0.00,,,0.00,0,WeatherCatV1.02B3,2013-08-28 11:09:00,
2013-08-28 04:14:00,62.5,53.3,29.62,West,281,0.0,0.0,72,0.00,,,0.00,0,WeatherCatV1.02B3,2013-08-28 11:14:00,
2013-08-28 04:19:00,62.3,53.5,29.62,West,281,0.0,0.0,73,0.00,,,0.00,0,WeatherCatV1.02B3,2013-08-28 11:19:00,
2013-08-28 04:24:00,62.1,53.3,29.62,West,281,0.0,0.0,73,0.00,,,0.00,0,WeatherCatV1.02B3,2013-08-28 11:24:00,
2013-08-28 04:29:00,62.3,53.5,29.62,West,281,0.0,0.0,73,0.00,,,0.00,0,WeatherCatV1.02B3,2013-08-28 11:29:00,
2013-08-28 04:34:00,62.3,53.5,29.62,West,281,0.0,0.0,73,0.00,,,0.00,0,WeatherCatV1.02B3,2013-08-28 11:34:00,
2013-08-28 04:39:00,62.2,53.4,29.62,West,281,0.0,0.0,73,0.00,,,0.00,0,WeatherCatV1.02B3,2013-08-28 11:39:00,
2013-08-28 04:44:00,62.4,53.6,29.62,West,281,0.0,0.0,73,0.00,,,0.00,0,WeatherCatV1.02B3,2013-08-28 11:44:00,
2013-08-28 04:49:00,62.4,53.6,29.62,West,281,0.0,0.0,73,0.00,,,0.00,0,WeatherCatV1.02B3,2013-08-28 11:49:00,
2013-08-28 04:54:00,62.7,53.9,29.62,West,281,0.0,0.0,73,0.00,,,0.00,0,WeatherCatV1.02B3,2013-08-28 11:54:00,
2013-08-28 04:59:00,62.0,52.9,29.62,West,281,0.0,0.0,72,0.00,,,0.00,0,WeatherCatV1.02B3,2013-08-28 11:59:00,
2013-08-28 05:04:00,61.9,53.5,29.62,West,281,0.0,0.0,74,0.00,,,0.00,0,WeatherCatV1.02B3,2013-08-28 12:04:00,
2013-08-28 05:09:00,62.2,53.4,29.62,West,281,0.0,0.0,73,0.00,,,0.00,0,WeatherCatV1.02B3,2013-08-28 12:09:00,
2013-08-28 05:14:00,62.3,53.5,29.62,West,281,0.0,0.0,73,0.00,,,0.00,0,WeatherCatV1.02B3,2013-08-28 12:14:00,
2013-08-28 05:19:00,62.1,53.3,29.62,West,281,0.0,0.0,73,0.00,,,0.00,0,WeatherCatV1.02B3,2013-08-28 12:19:00,
2013-08-28 05:24:00,62.1,53.7,29.62,West,281,0.0,0.0,74,0.00,,,0.00,0,WeatherCatV1.02B3,2013-08-28 12:24:00,
2013-08-28 05:29:00,62.2,53.4,29.62,West,281,0.0,0.0,73,0.00,,,0.00,0,WeatherCatV1.02B3,2013-08-28 12:29:00,
2013-08-28 05:34:00,62.4,53.6,29.62,West,281,0.0,0.0,73,0.00,,,0.00,0,WeatherCatV1.02B3,2013-08-28 12:34:00,
2013-08-28 05:39:00,62.2,53.4,29.62,West,281,0.0,0.0,73,0.00,,,0.00,0,WeatherCatV1.02B3,2013-08-28 12:39:00,
2013-08-28 05:44:00,61.8,53.0,29.62,West,281,0.0,0.0,73,0.00,,,0.00,0,WeatherCatV1.02B3,2013-08-28 12:44:00,
2013-08-28 05:49:00,61.6,53.2,29.62,West,281,0.0,0.0,74,0.00,,,0.00,0,WeatherCatV1.02B3,2013-08-28 12:49:00,
2013-08-28 05:54:00,61.9,53.5,29.62,West,281,0.0,0.0,74,0.00,,,0.00,0,WeatherCatV1.02B3,2013-08-28 12:54:00,
2013-08-28 05:59:00,61.9,53.1,29.62,West,281,0.0,0.0,73,0.00,,,0.00,0,WeatherCatV1.02B3,2013-08-28 12:59:00,
2013-08-28 06:04:00,61.7,53.3,29.62,West,281,0.0,0.0,74,0.00,,,0.00,0,WeatherCatV1.02B3,2013-08-28 13:04:00,
2013-08-28 06:09:00,61.5,53.5,29.62,West,281,0.0,0.0,75,0.00,,,0.00,0,WeatherCatV1.02B3,2013-08-28 13:09:00,
2013-08-28 06:14:00,61.8,53.8,29.62,West,281,0.0,0.0,75,0.00,,,0.00,0,WeatherCatV1.02B3,2013-08-28 13:14:00,
2013-08-28 06:19:00,62.1,53.3,29.62,West,281,0.0,1.0,73,0.00,,,0.00,0,WeatherCatV1.02B3,2013-08-28 13:19:00,
2013-08-28 06:24:00,61.9,53.5,29.62,West,281,0.0,0.0,74,0.00,,,0.00,0,WeatherCatV1.02B3,2013-08-28 13:24:00,
2013-08-28 06:29:00,61.8,53.4,29.62,West,281,0.0,0.0,74,0.00,,,0.00,0,WeatherCatV1.02B3,2013-08-28 13:29:00,
2013-08-28 06:34:00,61.6,53.2,29.62,West,281,0.0,0.0,74,0.00,,,0.00,5,WeatherCatV1.02B3,2013-08-28 13:34:00,
2013-08-28 06:39:00,61.9,53.9,29.62,West,281,0.0,0.0,75,0.00,,,0.00,7,WeatherCatV1.02B3,2013-08-28 13:39:00,
2013-08-28 06:44:00,61.4,53.0,29.62,West,281,0.0,0.0,74,0.00,,,0.00,9,WeatherCatV1.02B3,2013-08-28 13:44:00,
2013-08-28 06:49:00,61.3,53.3,29.62,West,281,0.0,0.0,75,0.00,,,0.00,11,WeatherCatV1.02B3,2013-08-28 13:49:00,
2013-08-28 06:54:00,61.5,53.5,29.62,West,281,0.0,0.0,75,0.00,,,0.00,12,WeatherCatV1.02B3,2013-08-28 13:54:00,
2013-08-28 06:59:00,61.8,53.8,29.62,West,281,0.0,0.0,75,0.00,,,0.00,14,WeatherCatV1.02B3,2013-08-28 13:59:00,
2013-08-28 07:04:00,61.6,53.2,29.62,West,281,0.0,0.0,74,0.00,,,0.00,16,WeatherCatV1.02B3,2013-08-28 14:04:00,
2013-08-28 07:09:00,61.5,53.5,29.62,West,281,0.0,0.0,75,0.00,,,0.00,18,WeatherCatV1.02B3,2013-08-28 14:09:00,
2013-08-28 07:14:00,61.9,53.9,29.62,West,281,0.0,0.0,75,0.00,,,0.00,19,WeatherCatV1.02B3,2013-08-28 14:14:00,
2013-08-28 07:19:00,62.2,53.8,29.62,West,281,0.0,0.0,74,0.00,,,0.00,21,WeatherCatV1.02B3,2013-08-28 14:19:00,
2013-08-28 07:24:00,62.7,54.3,29.62,West,281,0.0,0.0,74,0.00,,,0.00,23,WeatherCatV1.02B3,2013-08-28 14:24:00,
2013-08-28 07:29:00,63.5,54.7,29.62,West,281,0.0,0.0,73,0.00,,,0.00,23,WeatherCatV1.02B3,2013-08-28 14:29:00,
2013-08-28 07:34:00,64.4,54.8,29.62,West,281,0.0,0.0,71,0.00,,,0.00,25,WeatherCatV1.02B3,2013-08-28 14:34:00,
2013-08-28 07:39:00,64.3,54.7,29.62,West,281,0.0,0.0,71,0.00,,,0.00,26,WeatherCatV1.02B3,2013-08-28 14:39:00,
2013-08-28 07:44:00,65.0,55.4,29.62,West,281,0.0,0.0,71,0.00,,,0.00,26,WeatherCatV1.02B3,2013-08-28 14:44:00,
2013-08-28 07:49:00,65.7,55.2,29.62,West,281,0.0,0.0,69,0.00,,,0.00,32,WeatherCatV1.02B3,2013-08-28 14:49:00,
2013-08-28 07:54:00,66.1,55.6,29.62,West,281,0.0,0.0,69,0.00,,,0.00,42,WeatherCatV1.02B3,2013-08-28 14:54:00,
2013-08-28 07:59:00,66.7,55.8,29.62,West,281,0.0,0.0,68,0.00,,,0.00,44,WeatherCatV1.02B3,2013-08-28 14:59:00,
2013-08-28 08:04:00,67.5,56.1,29.62,West,281,1.0,1.0,67,0.00,,,0.00,105,WeatherCatV1.02B3,2013-08-28 15:04:00,
2013-08-28 08:09:00,68.6,56.4,29.62,West,281,0.0,0.0,65,0.00,,,0.00,56,WeatherCatV1.02B3,2013-08-28 15:09:00,
2013-08-28 08:14:00,69.7,56.5,29.62,West,281,0.0,0.0,63,0.00,,,0.00,46,WeatherCatV1.02B3,2013-08-28 15:14:00,
2013-08-28 08:19:00,69.7,56.5,29.62,West,281,0.0,0.0,63,0.00,,,0.00,42,WeatherCatV1.02B3,2013-08-28 15:19:00,
2013-08-28 08:24:00,70.8,57.6,29.62,West,281,0.0,0.0,63,0.00,,,0.00,176,WeatherCatV1.02B3,2013-08-28 15:24:00,
2013-08-28 08:29:00,72.0,56.9,29.62,WSW,247,1.0,1.0,59,0.00,,,0.00,77,WeatherCatV1.02B3,2013-08-28 15:29:00,
2013-08-28 08:34:00,73.3,57.1,29.62,South,189,0.0,1.0,57,0.00,,,0.00,84,WeatherCatV1.02B3,2013-08-28 15:34:00,
2013-08-28 08:39:00,74.4,57.2,29.62,SW,229,0.0,0.0,55,0.00,,,0.00,332,WeatherCatV1.02B3,2013-08-28 15:39:00,
2013-08-28 08:44:00,75.3,57.5,29.62,South,186,0.0,3.0,54,0.00,,,0.00,369,WeatherCatV1.02B3,2013-08-28 15:44:00,
2013-08-28 08:49:00,76.4,58.0,29.62,South,184,0.0,0.0,53,0.00,,,0.00,385,WeatherCatV1.02B3,2013-08-28 15:49:00,
2013-08-28 08:54:00,78.0,57.8,29.62,SSW,210,0.0,1.0,50,0.00,,,0.00,399,WeatherCatV1.02B3,2013-08-28 15:54:00,
2013-08-28 08:59:00,78.6,57.8,29.62,SSW,205,1.0,2.0,49,0.00,,,0.00,415,WeatherCatV1.02B3,2013-08-28 15:59:00,
2013-08-28 09:04:00,79.4,58.0,29.62,West,271,0.0,2.0,48,0.00,,,0.00,431,WeatherCatV1.02B3,2013-08-28 16:04:00,
2013-08-28 09:09:00,79.5,58.1,29.62,SE,145,0.0,4.0,48,0.00,,,0.00,448,WeatherCatV1.02B3,2013-08-28 16:09:00,
2013-08-28 09:14:00,80.2,58.7,29.62,South,186,0.0,2.0,48,0.00,,,0.00,462,WeatherCatV1.02B3,2013-08-28 16:14:00,
2013-08-28 09:19:00,80.8,59.2,29.62,NW,310,0.0,2.0,48,0.00,,,0.00,478,WeatherCatV1.02B3,2013-08-28 16:19:00,
2013-08-28 09:24:00,81.4,59.2,29.62,SSE,153,0.0,2.0,47,0.00,,,0.00,492,WeatherCatV1.02B3,2013-08-28 16:24:00,
2013-08-28 09:29:00,82.7,59.2,29.62,WNW,286,1.0,3.0,45,0.00,,,0.00,506,WeatherCatV1.02B3,2013-08-28 16:29:00,
2013-08-28 09:34:00,83.3,59.7,29.62,West,281,1.0,1.0,45,0.00,,,0.00,522,WeatherCatV1.02B3,2013-08-28 16:34:00,
2013-08-28 09:39:00,83.7,59.4,29.62,SSE,167,0.0,1.0,44,0.00,,,0.00,534,WeatherCatV1.02B3,2013-08-28 16:39:00,
2013-08-28 09:44:00,85.1,59.4,29.62,WNW,294,0.0,1.0,42,0.00,,,0.00,550,WeatherCatV1.02B3,2013-08-28 16:44:00,
2013-08-28 09:49:00,85.9,60.1,29.62,SE,128,0.0,1.0,42,0.00,,,0.00,564,WeatherCatV1.02B3,2013-08-28 16:49:00,
2013-08-28 09:54:00,86.0,59.5,29.62,West,269,2.0,3.0,41,0.00,,,0.00,578,WeatherCatV1.02B3,2013-08-28 16:54:00,
2013-08-28 09:59:00,86.6,59.4,29.62,SSE,154,1.0,3.0,40,0.00,,,0.00,594,WeatherCatV1.02B3,2013-08-28 16:59:00,
2013-08-28 10:04:00,87.0,59.7,29.62,West,269,5.0,6.0,40,0.00,,,0.00,603,WeatherCatV1.02B3,2013-08-28 17:04:00,
2013-08-28 10:09:00,88.1,60.0,29.62,West,263,3.0,6.0,39,0.00,,,0.00,617,WeatherCatV1.02B3,2013-08-28 17:09:00,
2013-08-28 10:14:00,88.8,59.9,29.62,ESE,121,0.0,4.0,38,0.00,,,0.00,629,WeatherCatV1.02B3,2013-08-28 17:14:00,
2013-08-28 10:19:00,89.1,60.1,29.62,ENE,64,0.0,2.0,38,0.00,,,0.00,642,WeatherCatV1.02B3,2013-08-28 17:19:00,
2013-08-28 10:24:00,90.4,59.8,29.62,West,259,3.0,5.0,36,0.00,,,0.00,656,WeatherCatV1.02B3,2013-08-28 17:24:00,
2013-08-28 10:29:00,89.9,59.3,29.62,West,259,6.0,7.0,36,0.00,,,0.00,668,WeatherCatV1.02B3,2013-08-28 17:29:00,
2013-08-28 10:34:00,89.3,59.6,29.62,WSW,248,6.0,10.0,37,0.00,,,0.00,679,WeatherCatV1.02B3,2013-08-28 17:34:00,
2013-08-28 10:39:00,89.9,60.1,29.62,West,278,1.0,4.0,37,0.00,,,0.00,687,WeatherCatV1.02B3,2013-08-28 17:39:00,
2013-08-28 10:44:00,92.6,60.1,29.62,SSW,198,2.0,3.0,34,0.00,,,0.00,700,WeatherCatV1.02B3,2013-08-28 17:44:00,
2013-08-28 10:49:00,93.5,60.9,29.62,NE,53,0.0,2.0,34,0.00,,,0.00,712,WeatherCatV1.02B3,2013-08-28 17:49:00,
2013-08-28 10:54:00,93.2,61.4,29.62,West,269,0.0,2.0,35,0.00,,,0.00,722,WeatherCatV1.02B3,2013-08-28 17:54:00,
2013-08-28 10:59:00,94.1,61.4,29.62,SSW,203,0.0,1.0,34,0.00,,,0.00,731,WeatherCatV1.02B3,2013-08-28 17:59:00,
2013-08-28 11:04:00,92.5,60.8,29.62,NE,38,0.0,3.0,35,0.00,,,0.00,740,WeatherCatV1.02B3,2013-08-28 18:04:00,
2013-08-28 11:10:00,93.4,62.4,29.62,West,279,1.0,4.0,36,0.00,,,0.00,752,WeatherCatV1.02B3,2013-08-28 18:10:00,
2013-08-28 11:15:00,93.2,61.4,29.62,SW,223,4.0,4.0,35,0.00,,,0.00,759,WeatherCatV1.02B3,2013-08-28 18:15:00,
2013-08-28 11:20:00,93.1,61.3,29.62,NW,317,1.0,5.0,35,0.00,,,0.00,768,WeatherCatV1.02B3,2013-08-28 18:20:00,
2013-08-28 11:25:00,92.6,60.9,29.62,West,265,1.0,4.0,35,0.00,,,0.00,773,WeatherCatV1.02B3,2013-08-28 18:25:00,
2013-08-28 11:30:00,93.3,60.7,29.62,SSE,148,1.0,3.0,34,0.00,,,0.00,782,WeatherCatV1.02B3,2013-08-28 18:30:00,
2013-08-28 11:35:00,93.5,60.9,29.62,SSE,148,1.0,3.0,34,0.00,,,0.00,793,WeatherCatV1.02B3,2013-08-28 18:35:00,
2013-08-28 11:40:00,93.2,60.6,29.62,ENE,76,1.0,6.0,34,0.00,,,0.00,796,WeatherCatV1.02B3,2013-08-28 18:40:00,
2013-08-28 11:45:00,94.3,61.6,29.62,ESE,112,0.0,1.0,34,0.00,,,0.00,803,WeatherCatV1.02B3,2013-08-28 18:45:00,
2013-08-28 11:50:00,94.9,61.2,29.62,NE,51,1.0,3.0,33,0.00,,,0.00,809,WeatherCatV1.02B3,2013-08-28 18:50:00,
2013-08-28 11:55:00,93.6,61.0,29.62,West,279,3.0,4.0,34,0.00,,,0.00,816,WeatherCatV1.02B3,2013-08-28 18:55:00,
2013-08-28 12:00:00,93.2,61.4,29.62,NW,304,2.0,3.0,35,0.00,,,0.00,821,WeatherCatV1.02B3,2013-08-28 19:00:00,
2013-08-28 12:05:00,92.6,60.1,29.62,North,9,1.0,2.0,34,0.00,,,0.00,828,WeatherCatV1.02B3,2013-08-28 19:05:00,
2013-08-28 12:10:00,92.2,60.5,29.62,WNW,292,3.0,4.0,35,0.00,,,0.00,830,WeatherCatV1.02B3,2013-08-28 19:10:00,
2013-08-28 12:15:00,92.8,61.1,29.62,NW,322,2.0,5.0,35,0.00,,,0.00,835,WeatherCatV1.02B3,2013-08-28 19:15:00,
2013-08-28 12:20:00,93.0,60.4,29.62,WNW,299,3.0,3.0,34,0.00,,,0.00,837,WeatherCatV1.02B3,2013-08-28 19:20:00,
2013-08-28 12:25:00,94.2,59.8,29.62,NE,51,2.0,4.0,32,0.00,,,0.00,844,WeatherCatV1.02B3,2013-08-28 19:25:00,
2013-08-28 12:30:00,94.7,60.2,29.62,WNW,294,2.0,7.0,32,0.00,,,0.00,846,WeatherCatV1.02B3,2013-08-28 19:30:00,
2013-08-28 12:35:00,94.1,60.5,29.62,North,355,1.0,3.0,33,0.00,,,0.00,844,WeatherCatV1.02B3,2013-08-28 19:35:00,
2013-08-28 12:40:00,93.5,60.0,29.62,NE,40,1.0,3.0,33,0.00,,,0.00,847,WeatherCatV1.02B3,2013-08-28 19:40:00,
2013-08-28 12:45:00,94.2,59.8,29.62,NW,313,3.0,3.0,32,0.00,,,0.00,854,WeatherCatV1.02B3,2013-08-28 19:45:00,
2013-08-28 12:50:00,94.2,58.9,29.62,NW,314,2.0,6.0,31,0.00,,,0.00,853,WeatherCatV1.02B3,2013-08-28 19:50:00,
2013-08-28 12:55:00,95.8,61.1,29.62,NW,323,0.0,3.0,32,0.00,,,0.00,856,WeatherCatV1.02B3,2013-08-28 19:55:00,
2013-08-28 13:00:00,94.0,58.7,29.62,ENE,77,1.0,4.0,31,0.00,,,0.00,854,WeatherCatV1.02B3,2013-08-28 20:00:00,
2013-08-28 13:05:00,93.8,59.4,29.62,WSW,254,1.0,6.0,32,0.00,,,0.00,854,WeatherCatV1.02B3,2013-08-28 20:05:00,
2013-08-28 13:10:00,94.6,58.3,29.62,NW,304,1.0,2.0,30,0.00,,,0.00,854,WeatherCatV1.02B3,2013-08-28 20:10:00,
2013-08-28 13:15:00,95.2,61.5,29.62,NNE,32,3.0,3.0,33,0.00,,,0.00,854,WeatherCatV1.02B3,2013-08-28 20:15:00,
2013-08-28 13:20:00,94.9,60.4,29.62,North,10,1.0,3.0,32,0.00,,,0.00,854,WeatherCatV1.02B3,2013-08-28 20:20:00,
2013-08-28 13:25:00,95.3,58.9,29.62,WNW,289,1.0,5.0,30,0.00,,,0.00,853,WeatherCatV1.02B3,2013-08-28 20:25:00,
2013-08-28 13:30:00,96.1,61.4,29.62,West,265,1.0,5.0,32,0.00,,,0.00,854,WeatherCatV1.02B3,2013-08-28 20:30:00,
2013-08-28 13:35:00,95.8,59.3,29.62,West,269,0.0,5.0,30,0.00,,,0.00,847,WeatherCatV1.02B3,2013-08-28 20:35:00,
2013-08-28 13:40:00,95.6,59.2,29.62,SE,134,0.0,5.0,30,0.00,,,0.00,847,WeatherCatV1.02B3,2013-08-28 20:40:00,
2013-08-28 13:45:00,97.0,60.4,29.62,ENE,74,0.0,5.0,30,0.00,,,0.00,842,WeatherCatV1.02B3,2013-08-28 20:45:00,
2013-08-28 13:50:00,96.6,60.0,29.62,ESE,103,3.0,7.0,30,0.00,,,0.00,842,WeatherCatV1.02B3,2013-08-28 20:50:00,
2013-08-28 13:55:00,95.4,60.8,29.62,West,274,0.0,2.0,32,0.00,,,0.00,831,WeatherCatV1.02B3,2013-08-28 20:55:00,
2013-08-28 14:00:00,96.4,59.8,29.62,NNE,17,1.0,1.0,30,0.00,,,0.00,831,WeatherCatV1.02B3,2013-08-28 21:00:00,
2013-08-28 14:05:00,96.2,60.6,29.62,NW,319,0.0,5.0,31,0.00,,,0.00,824,WeatherCatV1.02B3,2013-08-28 21:05:00,
2013-08-28 14:10:00,96.2,59.7,29.62,ENE,78,1.0,5.0,30,0.00,,,0.00,817,WeatherCatV1.02B3,2013-08-28 21:10:00,
2013-08-28 14:15:00,95.9,58.5,29.62,North,5,1.0,4.0,29,0.00,,,0.00,812,WeatherCatV1.02B3,2013-08-28 21:15:00,
2013-08-28 14:20:00,96.1,59.6,29.62,NW,312,2.0,5.0,30,0.00,,,0.00,807,WeatherCatV1.02B3,2013-08-28 21:20:00,
2013-08-28 14:25:00,96.7,60.1,29.62,NNW,327,4.0,4.0,30,0.00,,,0.00,798,WeatherCatV1.02B3,2013-08-28 21:25:00,
2013-08-28 14:30:00,96.4,59.8,29.62,NE,38,1.0,3.0,30,0.00,,,0.00,789,WeatherCatV1.02B3,2013-08-28 21:30:00,
2013-08-28 14:35:00,96.5,58.0,29.62,East,90,2.0,7.0,28,0.00,,,0.00,780,WeatherCatV1.02B3,2013-08-28 21:35:00,
2013-08-28 14:40:00,97.2,58.6,29.62,East,79,3.0,5.0,28,0.00,,,0.00,775,WeatherCatV1.02B3,2013-08-28 21:40:00,
2013-08-28 14:45:00,97.0,58.4,29.62,ENE,64,2.0,3.0,28,0.00,,,0.00,766,WeatherCatV1.02B3,2013-08-28 21:45:00,
2013-08-28 14:50:00,97.1,57.5,29.62,NE,36,0.0,6.0,27,0.00,,,0.00,759,WeatherCatV1.02B3,2013-08-28 21:50:00,
2013-08-28 14:55:00,96.6,58.1,29.62,NW,321,2.0,4.0,28,0.00,,,0.00,751,WeatherCatV1.02B3,2013-08-28 21:55:00,
2013-08-28 15:00:00,96.9,59.3,29.62,West,281,0.0,2.0,29,0.00,,,0.00,738,WeatherCatV1.02B3,2013-08-28 22:00:00,
2013-08-28 15:05:00,97.0,59.4,29.62,NE,55,0.0,1.0,29,0.00,,,0.00,728,WeatherCatV1.02B3,2013-08-28 22:05:00,
2013-08-28 15:10:00,96.7,58.2,29.62,NW,322,1.0,2.0,28,0.00,,,0.00,717,WeatherCatV1.02B3,2013-08-28 22:10:00,
2013-08-28 15:15:00,96.4,57.9,29.62,WNW,294,3.0,6.0,28,0.00,,,0.00,708,WeatherCatV1.02B3,2013-08-28 22:15:00,
2013-08-28 15:20:00,95.8,58.4,29.62,NNE,32,0.0,3.0,29,0.00,,,0.00,698,WeatherCatV1.02B3,2013-08-28 22:20:00,
2013-08-28 15:25:00,96.9,59.3,29.62,ESE,114,2.0,3.0,29,0.00,,,0.00,687,WeatherCatV1.02B3,2013-08-28 22:25:00,
2013-08-28 15:30:00,95.5,57.2,29.62,North,11,1.0,7.0,28,0.00,,,0.00,677,WeatherCatV1.02B3,2013-08-28 22:30:00,
2013-08-28 15:35:00,95.5,58.1,29.62,ENE,63,2.0,4.0,29,0.00,,,0.00,663,WeatherCatV1.02B3,2013-08-28 22:35:00,
2013-08-28 15:40:00,95.2,58.8,29.62,NE,47,2.0,4.0,30,0.00,,,0.00,652,WeatherCatV1.02B3,2013-08-28 22:40:00,
2013-08-28 15:45:00,94.6,57.4,29.62,ENE,71,2.0,6.0,29,0.00,,,0.00,643,WeatherCatV1.02B3,2013-08-28 22:45:00,
2013-08-28 15:50:00,94.5,58.2,29.62,ENE,66,2.0,6.0,30,0.00,,,0.00,631,WeatherCatV1.02B3,2013-08-28 22:50:00,
2013-08-28 15:55:00,94.3,59.0,29.62,NW,322,5.0,5.0,31,0.00,,,0.00,617,WeatherCatV1.02B3,2013-08-28 22:55:00,
2013-08-28 16:00:00,94.4,57.2,29.62,NW,320,3.0,6.0,29,0.00,,,0.00,601,WeatherCatV1.02B3,2013-08-28 23:00:00,
2013-08-28 16:05:00,94.6,58.3,29.62,WSW,242,4.0,8.0,30,0.00,,,0.00,587,WeatherCatV1.02B3,2013-08-28 23:05:00,
2013-08-28 16:10:00,94.6,58.3,29.62,West,273,6.0,8.0,30,0.00,,,0.00,575,WeatherCatV1.02B3,2013-08-28 23:10:00,
2013-08-28 16:15:00,94.0,56.8,29.62,West,267,3.0,8.0,29,0.00,,,0.00,563,WeatherCatV1.02B3,2013-08-28 23:15:00,
2013-08-28 16:20:00,94.1,56.9,29.62,ESE,116,1.0,3.0,29,0.00,,,0.00,543,WeatherCatV1.02B3,2013-08-28 23:20:00,
2013-08-28 16:25:00,93.7,56.6,29.62,West,274,4.0,5.0,29,0.00,,,0.00,540,WeatherCatV1.02B3,2013-08-28 23:25:00,
2013-08-28 16:30:00,93.4,57.3,29.62,NW,323,2.0,6.0,30,0.00,,,0.00,519,WeatherCatV1.02B3,2013-08-28 23:30:00,
2013-08-28 16:35:00,93.1,57.0,29.62,NW,313,0.0,4.0,30,0.00,,,0.00,503,WeatherCatV1.02B3,2013-08-28 23:35:00,
2013-08-28 16:40:00,92.9,53.9,29.62,East,96,1.0,8.0,27,0.00,,,0.00,489,WeatherCatV1.02B3,2013-08-28 23:40:00,
2013-08-28 16:45:00,92.6,53.7,29.62,West,281,2.0,3.0,27,0.00,,,0.00,473,WeatherCatV1.02B3,2013-08-28 23:45:00,
2013-08-28 16:50:00,93.3,55.3,29.62,West,280,2.0,4.0,28,0.00,,,0.00,469,WeatherCatV1.02B3,2013-08-28 23:50:00,
2013-08-28 16:56:00,92.9,50.7,29.62,NW,321,1.0,7.0,24,0.00,,,0.00,443,WeatherCatV1.02B3,2013-08-28 23:56:00,
2013-08-28 17:01:00,92.8,50.7,29.62,WNW,288,4.0,4.0,24,0.00,,,0.00,425,WeatherCatV1.02B3,2013-08-29 00:01:00,
2013-08-28 17:06:00,92.6,51.6,29.62,WNW,296,4.0,6.0,25,0.00,,,0.00,411,WeatherCatV1.02B3,2013-08-29 00:06:00,
2013-08-28 17:11:00,92.3,51.3,29.62,WNW,289,3.0,7.0,25,0.00,,,0.00,397,WeatherCatV1.02B3,2013-08-29 00:11:00,
2013-08-28 17:16:00,91.9,51.0,29.62,WSW,242,2.0,3.0,25,0.00,,,0.00,381,WeatherCatV1.02B3,2013-08-29 00:16:00,
2013-08-28 17:21:00,91.9,48.8,29.62,WSW,256,5.0,10.0,23,0.00,,,0.00,364,WeatherCatV1.02B3,2013-08-29 00:21:00,
2013-08-28 17:26:00,91.5,49.6,29.62,WNW,298,3.0,5.0,24,0.00,,,0.00,348,WeatherCatV1.02B3,2013-08-29 00:26:00,
2013-08-28 17:31:00,91.5,49.6,29.62,NW,305,0.0,3.0,24,0.00,,,0.00,332,WeatherCatV1.02B3,2013-08-29 00:31:00,
2013-08-28 17:36:00,91.8,47.5,29.62,NNE,30,2.0,7.0,22,0.00,,,0.00,316,WeatherCatV1.02B3,2013-08-29 00:36:00,
2013-08-28 17:41:00,91.0,45.6,29.62,ESE,110,2.0,4.0,21,0.00,,,0.00,301,WeatherCatV1.02B3,2013-08-29 00:41:00,
2013-08-28 17:46:00,90.8,45.4,29.62,WSW,257,1.0,4.0,21,0.00,,,0.00,287,WeatherCatV1.02B3,2013-08-29 00:46:00,
2013-08-28 17:51:00,90.7,46.6,29.62,WNW,286,2.0,4.0,22,0.00,,,0.00,269,WeatherCatV1.02B3,2013-08-29 00:51:00,
2013-08-28 17:56:00,90.2,46.2,29.62,West,277,2.0,3.0,22,0.00,,,0.00,251,WeatherCatV1.02B3,2013-08-29 00:56:00,
2013-08-28 18:01:00,90.1,46.1,29.62,North,355,0.0,4.0,22,0.00,,,0.00,236,WeatherCatV1.02B3,2013-08-29 01:01:00,
2013-08-28 18:06:00,89.7,45.8,29.62,WNW,295,2.0,5.0,22,0.00,,,0.00,216,WeatherCatV1.02B3,2013-08-29 01:06:00,
2013-08-28 18:11:00,89.3,44.2,29.62,ENE,73,1.0,2.0,21,0.00,,,0.00,195,WeatherCatV1.02B3,2013-08-29 01:11:00,
2013-08-28 18:16:00,89.2,42.8,29.62,South,188,0.0,3.0,20,0.00,,,0.00,174,WeatherCatV1.02B3,2013-08-29 01:16:00,
2013-08-28 18:21:00,88.8,41.2,29.62,East,88,0.0,4.0,19,0.00,,,0.00,156,WeatherCatV1.02B3,2013-08-29 01:21:00,
2013-08-28 18:26:00,88.5,43.5,29.62,WNW,288,3.0,3.0,21,0.00,,,0.00,137,WeatherCatV1.02B3,2013-08-29 01:26:00,
2013-08-28 18:31:00,88.2,42.0,29.62,WNW,286,0.0,2.0,20,0.00,,,0.00,118,WeatherCatV1.02B3,2013-08-29 01:31:00,
2013-08-28 18:36:00,87.9,41.8,29.62,ENE,75,0.0,3.0,20,0.00,,,0.00,83,WeatherCatV1.02B3,2013-08-29 01:36:00,
2013-08-28 18:41:00,87.0,42.3,29.62,West,265,1.0,4.0,21,0.00,,,0.00,19,WeatherCatV1.02B3,2013-08-29 01:41:00,
2013-08-28 18:46:00,86.5,40.6,29.62,West,261,0.0,2.0,20,0.00,,,0.00,18,WeatherCatV1.02B3,2013-08-29 01:46:00,
2013-08-28 18:51:00,85.9,41.4,29.62,West,281,0.0,3.0,21,0.00,,,0.00,16,WeatherCatV1.02B3,2013-08-29 01:51:00,
2013-08-28 18:56:00,85.6,43.5,29.62,WNW,296,1.0,2.0,23,0.00,,,0.00,14,WeatherCatV1.02B3,2013-08-29 01:56:00,
2013-08-28 19:01:00,85.2,42.0,29.62,North,355,0.0,3.0,22,0.00,,,0.00,14,WeatherCatV1.02B3,2013-08-29 02:01:00,
2013-08-28 19:06:00,85.0,41.9,29.62,WNW,295,1.0,3.0,22,0.00,,,0.00,12,WeatherCatV1.02B3,2013-08-29 02:06:00,
2013-08-28 19:11:00,84.8,42.9,29.62,NNW,348,1.0,3.0,23,0.00,,,0.00,11,WeatherCatV1.02B3,2013-08-29 02:11:00,
2013-08-28 19:16:00,84.1,43.4,29.62,North,5,0.0,2.0,24,0.00,,,0.00,9,WeatherCatV1.02B3,2013-08-29 02:16:00,
2013-08-28 19:21:00,83.4,42.8,29.62,North,0,0.0,1.0,24,0.00,,,0.00,7,WeatherCatV1.02B3,2013-08-29 02:21:00,
2013-08-28 19:26:00,82.3,42.9,29.62,North,0,0.0,1.0,25,0.00,,,0.00,5,WeatherCatV1.02B3,2013-08-29 02:26:00,
2013-08-28 19:31:00,81.4,44.2,29.62,North,0,0.0,0.0,27,0.00,,,0.00,0,WeatherCatV1.02B3,2013-08-29 02:31:00,
2013-08-28 19:36:00,81.0,48.3,29.62,North,0,0.0,0.0,32,0.00,,,0.00,0,WeatherCatV1.02B3,2013-08-29 02:36:00,
2013-08-28 19:41:00,80.0,49.1,29.62,North,0,0.0,0.0,34,0.00,,,0.00,0,WeatherCatV1.02B3,2013-08-29 02:41:00,
2013-08-28 19:46:00,79.5,51.6,29.62,North,0,0.0,0.0,38,0.00,,,0.00,0,WeatherCatV1.02B3,2013-08-29 02:46:00,
2013-08-28 19:51:00,78.7,50.9,29.62,North,0,0.0,0.0,38,0.00,,,0.00,0,WeatherCatV1.02B3,2013-08-29 02:51:00,
2013-08-28 19:56:00,77.9,51.6,29.62,North,0,0.0,0.0,40,0.00,,,0.00,0,WeatherCatV1.02B3,2013-08-29 02:56:00,
2013-08-28 20:01:00,77.5,49.9,29.62,North,0,0.0,0.0,38,0.00,,,0.00,0,WeatherCatV1.02B3,2013-08-29 03:01:00,
2013-08-28 20:06:00,76.7,53.1,29.62,North,0,0.0,0.0,44,0.00,,,0.00,0,WeatherCatV1.02B3,2013-08-29 03:06:00,
2013-08-28 20:11:00,76.4,52.9,29.62,North,0,0.0,0.0,44,0.00,,,0.00,0,WeatherCatV1.02B3,2013-08-29 03:11:00,
2013-08-28 20:16:00,75.9,51.8,29.62,North,0,0.0,0.0,43,0.00,,,0.00,0,WeatherCatV1.02B3,2013-08-29 03:16:00,
2013-08-28 20:21:00,75.5,52.0,29.62,North,0,0.0,0.0,44,0.00,,,0.00,0,WeatherCatV1.02B3,2013-08-29 03:21:00,
2013-08-28 20:26:00,74.1,52.6,29.62,North,0,0.0,0.0,47,0.00,,,0.00,0,WeatherCatV1.02B3,2013-08-29 03:26:00,
2013-08-28 20:31:00,73.6,52.1,29.62,North,0,0.0,0.0,47,0.00,,,0.00,0,WeatherCatV1.02B3,2013-08-29 03:31:00,
2013-08-28 20:36:00,73.0,52.7,29.62,North,0,0.0,0.0,49,0.00,,,0.00,0,WeatherCatV1.02B3,2013-08-29 03:36:00,
2013-08-28 20:41:00,72.3,55.7,29.62,NW,306,0.0,0.0,56,0.00,,,0.00,0,WeatherCatV1.02B3,2013-08-29 03:41:00,
2013-08-28 20:46:00,71.3,56.2,29.62,NW,306,0.0,0.0,59,0.00,,,0.00,0,WeatherCatV1.02B3,2013-08-29 03:46:00,
2013-08-28 20:51:00,70.6,56.0,29.62,NW,306,0.0,0.0,60,0.00,,,0.00,0,WeatherCatV1.02B3,2013-08-29 03:51:00,
2013-08-28 20:56:00,70.1,56.5,29.62,NW,306,0.0,0.0,62,0.00,,,0.00,0,WeatherCatV1.02B3,2013-08-29 03:56:00,
2013-08-28 21:01:00,69.2,56.5,29.62,NW,306,0.0,0.0,64,0.00,,,0.00,0,WeatherCatV1.02B3,2013-08-29 04:01:00,
2013-08-28 21:06:00,68.8,56.1,29.62,NW,306,0.0,0.0,64,0.00,,,0.00,0,WeatherCatV1.02B3,2013-08-29 04:06:00,
2013-08-28 21:11:00,68.6,56.8,29.62,NW,306,0.0,0.0,66,0.00,,,0.00,0,WeatherCatV1.02B3,2013-08-29 04:11:00,
2013-08-28 21:16:00,68.0,56.6,29.62,NW,306,0.0,0.0,67,0.00,,,0.00,0,WeatherCatV1.02B3,2013-08-29 04:16:00,
2013-08-28 21:21:00,67.7,56.7,29.62,NW,306,0.0,0.0,68,0.00,,,0.00,0,WeatherCatV1.02B3,2013-08-29 04:21:00,
2013-08-28 21:26:00,67.2,57.1,29.62,NW,306,0.0,0.0,70,0.00,,,0.00,0,WeatherCatV1.02B3,2013-08-29 04:26:00,
2013-08-28 21:31:00,66.9,56.8,29.62,NW,306,0.0,0.0,70,0.00,,,0.00,0,WeatherCatV1.02B3,2013-08-29 04:31:00,
2013-08-28 21:36:00,66.6,56.5,29.62,NW,306,0.0,0.0,70,0.00,,,0.00,0,WeatherCatV1.02B3,2013-08-29 04:36:00,
2013-08-28 21:41:00,66.1,56.4,29.62,NW,306,0.0,0.0,71,0.00,,,0.00,0,WeatherCatV1.02B3,2013-08-29 04:41:00,
2013-08-28 21:46:00,66.4,56.7,29.62,NW,306,0.0,0.0,71,0.00,,,0.00,0,WeatherCatV1.02B3,2013-08-29 04:46:00,
2013-08-28 21:51:00,66.4,56.7,29.62,NW,306,0.0,0.0,71,0.00,,,0.00,0,WeatherCatV1.02B3,2013-08-29 04:51:00,
2013-08-28 21:56:00,66.1,56.0,29.62,NW,306,0.0,0.0,70,0.00,,,0.00,0,WeatherCatV1.02B3,2013-08-29 04:56:00,
2013-08-28 22:01:00,65.8,56.1,29.62,NW,306,0.0,0.0,71,0.00,,,0.00,0,WeatherCatV1.02B3,2013-08-29 05:01:00,
2013-08-28 22:06:00,65.5,55.4,29.62,NW,306,0.0,0.0,70,0.00,,,0.00,0,WeatherCatV1.02B3,2013-08-29 05:06:00,
2013-08-28 22:11:00,64.8,55.6,29.62,NW,306,0.0,0.0,72,0.00,,,0.00,0,WeatherCatV1.02B3,2013-08-29 05:11:00,
2013-08-28 22:16:00,64.6,56.1,29.62,NW,306,0.0,0.0,74,0.00,,,0.00,0,WeatherCatV1.02B3,2013-08-29 05:16:00,
2013-08-28 22:21:00,65.1,56.6,29.62,NW,306,0.0,0.0,74,0.00,,,0.00,0,WeatherCatV1.02B3,2013-08-29 05:21:00,
2013-08-28 22:26:00,64.7,55.5,29.62,NW,306,0.0,0.0,72,0.00,,,0.00,0,WeatherCatV1.02B3,2013-08-29 05:26:00,
2013-08-28 22:31:00,64.2,55.7,29.62,NW,306,0.0,0.0,74,0.00,,,0.00,0,WeatherCatV1.02B3,2013-08-29 05:31:00,
2013-08-28 22:36:00,64.0,55.9,29.62,NW,306,0.0,0.0,75,0.00,,,0.00,0,WeatherCatV1.02B3,2013-08-29 05:36:00,
2013-08-28 22:41:00,64.6,56.5,29.62,NW,306,0.0,0.0,75,0.00,,,0.00,0,WeatherCatV1.02B3,2013-08-29 05:41:00,
2013-08-28 22:46:00,64.9,56.8,29.62,NW,306,0.0,0.0,75,0.00,,,0.00,0,WeatherCatV1.02B3,2013-08-29 05:46:00,
2013-08-28 22:51:00,64.4,55.9,29.62,NW,306,0.0,0.0,74,0.00,,,0.00,0,WeatherCatV1.02B3,2013-08-29 05:51:00,
2013-08-28 22:56:00,63.8,55.3,29.62,NW,306,0.0,0.0,74,0.00,,,0.00,0,WeatherCatV1.02B3,2013-08-29 05:56:00,
2013-08-28 23:01:00,63.9,55.4,29.62,NW,306,0.0,0.0,74,0.00,,,0.00,0,WeatherCatV1.02B3,2013-08-29 06:01:00,
2013-08-28 23:06:00,63.6,55.2,29.62,NW,306,0.0,0.0,74,0.00,,,0.00,0,WeatherCatV1.02B3,2013-08-29 06:06:00,
2013-08-28 23:11:00,63.8,55.3,29.62,NW,306,0.0,0.0,74,0.00,,,0.00,0,WeatherCatV1.02B3,2013-08-29 06:11:00,
2013-08-28 23:16:00,63.8,55.0,29.62,NW,306,0.0,0.0,73,0.00,,,0.00,0,WeatherCatV1.02B3,2013-08-29 06:16:00,
2013-08-28 23:21:00,63.9,55.4,29.62,NW,306,0.0,0.0,74,0.00,,,0.00,0,WeatherCatV1.02B3,2013-08-29 06:21:00,
2013-08-28 23:26:00,63.4,53.8,29.62,NW,306,0.0,0.0,71,0.00,,,0.00,0,WeatherCatV1.02B3,2013-08-29 06:26:00,
2013-08-28 23:31:00,63.1,54.7,29.62,NW,306,0.0,0.0,74,0.00,,,0.00,0,WeatherCatV1.02B3,2013-08-29 06:31:00,
2013-08-28 23:36:00,63.7,55.3,29.62,NW,306,0.0,0.0,74,0.00,,,0.00,0,WeatherCatV1.02B3,2013-08-29 06:36:00,
2013-08-28 23:41:00,63.7,54.9,29.62,NW,306,0.0,0.0,73,0.00,,,0.00,0,WeatherCatV1.02B3,2013-08-29 06:41:00,
2013-08-28 23:46:00,63.7,55.6,29.62,NW,306,0.0,0.0,75,0.00,,,0.00,0,WeatherCatV1.02B3,2013-08-29 06:46:00,
2013-08-28 23:51:00,63.4,55.0,29.62,NW,306,0.0,0.0,74,0.00,,,0.00,0,WeatherCatV1.02B3,2013-08-29 06:51:00,
2013-08-28 23:56:00,63.3,54.9,29.62,NW,306,0.0,0.0,74,0.00,,,0.00,0,WeatherCatV1.02B3,2013-08-29 06:56:00,